createdAt,value
2022-09-27T00:05:11.074Z,82.03
2022-09-27T00:12:03.248Z,81.68
2022-09-27T00:18:50.814Z,81.05
2022-09-27T00:25:33.739Z,81.44
2022-09-27T00:32:19.202Z,81.71
2022-09-27T00:39:01.992Z,81.72
2022-09-27T00:45:47.681Z,81.39
2022-09-27T00:52:30.872Z,81.83
2022-09-27T00:59:14.584Z,81.69
2022-09-27T01:05:57.410Z,82.32
2022-09-27T01:13:04.211Z,82.42
2022-09-27T01:19:53.118Z,82.70
2022-09-27T01:26:38.128Z,82.96
2022-09-27T01:33:33.735Z,82.83
2022-09-27T01:40:41.106Z,82.91
2022-09-27T01:47:49.566Z,83.02
2022-09-27T01:54:34.422Z,82.34
2022-09-27T02:01:17.502Z,82.73
2022-09-27T02:08:21.403Z,82.48
2022-09-27T02:15:16.814Z,82.87
2022-09-27T02:21:59.457Z,82.36
2022-09-27T02:28:42.727Z,82.69
2022-09-27T02:35:25.554Z,81.81
2022-09-27T02:42:17.301Z,82.17
2022-09-27T02:49:07.675Z,82.44
2022-09-27T02:55:53.573Z,83.04
2022-09-27T03:02:45.458Z,83.87
2022-09-27T03:09:34.404Z,83.90
2022-09-27T03:16:17.451Z,83.58
2022-09-27T03:23:06.045Z,82.80
2022-09-27T03:29:49.310Z,83.81
2022-09-27T03:36:32.002Z,83.83
2022-09-27T03:43:14.920Z,82.93
2022-09-27T03:49:59.868Z,83.55
2022-09-27T03:56:42.596Z,84.24
2022-09-27T04:03:25.778Z,83.82
2022-09-27T04:10:06.890Z,84.73
2022-09-27T04:16:49.985Z,84.84
2022-09-27T04:23:35.806Z,84.69
2022-09-27T04:30:18.388Z,85.03
2022-09-27T04:37:01.031Z,84.97
2022-09-27T04:43:43.564Z,84.85
2022-09-27T04:50:26.747Z,84.83
2022-09-27T04:57:09.774Z,84.67
2022-09-27T05:03:52.635Z,84.58
2022-09-27T05:10:35.668Z,83.59
2022-09-27T05:17:18.405Z,84.34
2022-09-27T05:24:04.287Z,84.72
2022-09-27T05:30:47.768Z,84.10
2022-09-27T05:37:30.628Z,84.18
2022-09-27T05:44:13.592Z,84.37
2022-09-27T05:50:56.627Z,84.36
2022-09-27T05:57:40.445Z,83.76
2022-09-27T06:04:24.367Z,84.17
2022-09-27T06:11:07.490Z,84.27
2022-09-27T06:17:50.717Z,84.11
2022-09-27T06:24:33.498Z,83.31
2022-09-27T06:31:16.386Z,82.98
2022-09-27T06:38:05.746Z,82.91
2022-09-27T06:44:29.806Z,82.68
2022-09-27T06:51:11.319Z,82.51
2022-09-27T06:57:53.391Z,82.72
2022-09-27T07:04:36.594Z,85.38
2022-09-27T07:11:33.044Z,86.85
2022-09-27T07:18:33.737Z,85.80
2022-09-27T07:25:26.072Z,88.29
2022-09-27T07:32:10.763Z,85.08
2022-09-27T07:38:55.959Z,81.07
2022-09-27T07:53:22.464Z,74.56
2022-09-27T08:14:54.284Z,72.60
2022-09-27T08:21:38.535Z,68.60
2022-09-27T08:28:36.907Z,66.19
2022-09-27T08:35:00.155Z,66.40
2022-09-27T08:41:58.095Z,65.68
2022-09-27T08:48:55.198Z,65.38
2022-09-27T08:55:38.373Z,64.56
2022-09-27T09:02:21.567Z,64.16
2022-09-27T09:09:25.585Z,63.02
2022-09-27T09:15:32.184Z,63.08
2022-09-27T09:22:24.630Z,62.31
2022-09-27T09:29:02.741Z,62.18
2022-09-27T09:35:28.969Z,62.01
2022-09-27T09:42:15.047Z,61.79
2022-09-27T09:49:10.416Z,61.93
2022-09-27T09:54:52.177Z,60.89
2022-09-27T10:00:35.202Z,60.13
2022-09-27T10:06:25.714Z,58.90
2022-09-27T10:12:29.296Z,58.01
2022-09-27T10:18:07.014Z,57.24
2022-09-27T10:23:40.223Z,57.69
2022-09-27T10:29:50.609Z,57.24
2022-09-27T10:35:54.305Z,58.38
2022-09-27T10:41:56.958Z,57.81
2022-09-27T10:47:38.128Z,56.41
2022-09-27T10:54:12.902Z,56.67
2022-09-27T11:00:56.056Z,57.17
2022-09-27T11:07:57.795Z,56.34
2022-09-27T11:14:43.753Z,54.60
2022-09-27T11:20:53.641Z,54.28
2022-09-27T11:26:42.432Z,53.05
2022-09-27T11:32:44.732Z,52.93
2022-09-27T11:39:36.747Z,53.64
2022-09-27T11:46:16.740Z,52.66
2022-09-27T12:13:44.929Z,55.50
2022-09-27T12:20:34.845Z,56.25
2022-09-27T12:27:20.892Z,56.21
2022-09-27T12:34:19.575Z,56.46
2022-09-27T12:40:52.424Z,61.45
2022-09-27T12:47:42.784Z,62.34
2022-09-27T12:54:31.555Z,58.04
2022-09-27T13:01:23.017Z,59.09
2022-09-27T13:08:19.857Z,60.49
2022-09-27T13:15:03.012Z,61.62
2022-09-27T13:20:57.850Z,62.42
2022-09-27T13:27:44.478Z,63.12
2022-09-27T13:34:32.622Z,64.02
2022-09-27T13:41:21.752Z,64.78
2022-09-27T13:47:55.132Z,64.83
2022-09-27T13:54:38.940Z,64.71
2022-09-27T14:01:28.723Z,65.97
2022-09-27T14:08:14.434Z,66.76
2022-09-27T14:15:00.824Z,68.63
2022-09-27T14:21:53.337Z,70.55
2022-09-27T14:28:44.825Z,71.45
2022-09-27T14:35:33.646Z,73.57
2022-09-27T14:42:16.688Z,74.50
2022-09-27T14:48:54.645Z,76.21
2022-09-27T14:55:38.451Z,77.59
2022-09-27T15:02:05.881Z,78.78
2022-09-27T15:08:38.796Z,79.64
2022-09-27T15:15:21.530Z,80.22
2022-09-27T15:22:07.597Z,80.23
2022-09-27T15:28:35.919Z,80.54
2022-09-27T15:35:19.258Z,80.31
2022-09-27T15:42:06.688Z,80.31
2022-09-27T15:48:42.810Z,80.41
2022-09-27T15:55:05.788Z,81.23
2022-09-27T16:01:37.946Z,81.55
2022-09-27T16:08:22.699Z,81.79
2022-09-27T16:15:07.645Z,82.12
2022-09-27T16:21:54.753Z,82.26
2022-09-27T16:28:40.812Z,82.64
2022-09-27T16:35:26.147Z,82.83
2022-09-27T16:42:09.796Z,82.99
2022-09-27T16:48:53.443Z,82.72
2022-09-27T16:55:40.432Z,83.04
2022-09-27T17:02:23.685Z,83.19
2022-09-27T17:09:06.662Z,83.33
2022-09-27T17:15:49.488Z,83.14
2022-09-27T17:22:33.032Z,83.22
2022-09-27T17:29:20.614Z,83.30
2022-09-27T17:36:04.900Z,83.40
2022-09-27T17:42:50.142Z,83.77
2022-09-27T17:49:31.685Z,83.78
2022-09-27T17:56:14.608Z,83.47
2022-09-27T18:02:58.864Z,83.50
2022-09-27T18:09:42.246Z,83.48
2022-09-27T18:16:25.895Z,83.50
2022-09-27T18:23:09.975Z,83.87
2022-09-27T18:29:53.373Z,84.12
2022-09-27T18:36:36.194Z,84.17
2022-09-27T18:43:19.240Z,84.14
2022-09-27T18:50:02.128Z,84.20
2022-09-27T18:56:45.400Z,84.20
2022-09-27T19:03:28.218Z,84.15
2022-09-27T19:10:10.864Z,84.14
2022-09-27T19:16:38.067Z,83.92
2022-09-27T19:23:21.735Z,83.87
2022-09-27T19:30:04.849Z,83.93
2022-09-27T19:36:32.152Z,83.91
2022-09-27T19:43:14.254Z,83.97
2022-09-27T19:49:29.222Z,84.15
2022-09-27T19:55:15.188Z,84.07
2022-09-27T20:01:19.673Z,84.00
2022-09-27T20:07:29.530Z,83.94
2022-09-27T20:13:32.524Z,84.07
2022-09-27T20:19:40.213Z,83.46
2022-09-27T20:26:07.878Z,83.51
2022-09-27T20:32:28.125Z,83.57
2022-09-27T20:38:32.408Z,83.72
2022-09-27T20:44:39.762Z,83.83
2022-09-27T20:51:04.659Z,83.62
2022-09-27T20:57:56.537Z,83.19
2022-09-27T21:04:22.907Z,83.44
2022-09-27T21:10:21.342Z,83.65
2022-09-27T21:16:44.643Z,83.71
2022-09-27T21:23:24.096Z,83.88
2022-09-27T21:30:07.306Z,83.78
2022-09-27T21:36:52.371Z,83.85
2022-09-27T21:43:35.159Z,84.03
2022-09-27T21:50:18.336Z,83.89
2022-09-27T21:57:01.474Z,83.49
2022-09-27T22:03:43.919Z,83.25
2022-09-27T22:10:26.721Z,83.41
2022-09-27T22:17:09.369Z,83.62
2022-09-27T22:23:51.518Z,83.93
2022-09-27T22:30:34.237Z,84.21
2022-09-27T22:37:16.827Z,84.38
2022-09-27T22:44:18.730Z,84.38
2022-09-27T22:51:12.973Z,84.35
2022-09-27T23:12:23.397Z,83.34
2022-09-27T23:38:42.952Z,83.08
2022-09-27T23:45:28.164Z,82.61
2022-09-27T23:52:12.564Z,82.65
2022-09-27T23:58:55.590Z,82.50
